sensor_id;sensor_type;location;lat;lon;timestamp;pressure;altitude;pressure_sealevel;temperature;humidity
42247;BME280;27913;42.722;23.268;2023-04-27T00:00:13;94724.50;;;6.70;62.33
42247;BME280;27913;42.722;23.268;2023-04-27T00:05:15;94734.16;;;6.69;62.75
42247;BME280;27913;42.722;23.268;2023-04-27T00:07:41;94635.41;;;6.16;62.33
42247;BME280;27913;42.722;23.268;2023-04-27T00:10:07;94735.66;;;6.63;62.41
42247;BME280;27913;42.722;23.268;2023-04-27T00:12:33;94708.78;;;6.46;62.18
42247;BME280;27913;42.722;23.268;2023-04-27T00:14:58;94707.47;;;6.42;62.58
42247;BME280;27913;42.722;23.268;2023-04-27T00:17:24;94591.78;;;5.68;62.77
42247;BME280;27913;42.722;23.268;2023-04-27T00:19:49;94708.47;;;6.33;62.97
42247;BME280;27913;42.722;23.268;2023-04-27T00:22:15;94679.78;;;6.16;62.93
42247;BME280;27913;42.722;23.268;2023-04-27T00:24:40;94664.59;;;6.03;63.35
42247;BME280;27913;42.722;23.268;2023-04-27T00:27:06;94563.94;;;5.43;63.10
42247;BME280;27913;42.722;23.268;2023-04-27T00:29:32;94738.66;;;6.44;63.19
42247;BME280;27913;42.722;23.268;2023-04-27T00:31:57;94692.34;;;6.21;63.26
42247;BME280;27913;42.722;23.268;2023-04-27T00:34:23;94726.91;;;6.39;63.35
42247;BME280;27913;42.722;23.268;2023-04-27T00:36:48;94590.00;;;5.52;63.29
42247;BME280;27913;42.722;23.268;2023-04-27T00:39:14;94682.09;;;6.11;63.46
42247;BME280;27913;42.722;23.268;2023-04-27T00:41:39;94601.56;;;5.66;63.13
42247;BME280;27913;42.722;23.268;2023-04-27T00:44:05;94669.34;;;5.99;63.52
42247;BME280;27913;42.722;23.268;2023-04-27T00:46:34;94665.47;;;5.95;63.11
42247;BME280;27913;42.722;23.268;2023-04-27T00:49:00;94724.47;;;6.30;63.65
42247;BME280;27913;42.722;23.268;2023-04-27T00:51:26;94708.19;;;6.11;63.72
42247;BME280;27913;42.722;23.268;2023-04-27T00:53:58;94673.13;;;5.88;63.83
42247;BME280;27913;42.722;23.268;2023-04-27T00:56:25;94673.28;;;5.78;63.90
42247;BME280;27913;42.722;23.268;2023-04-27T00:58:50;94598.50;;;5.29;64.23
42247;BME280;27913;42.722;23.268;2023-04-27T01:01:15;94738.06;;;6.08;64.53
42247;BME280;27913;42.722;23.268;2023-04-27T01:03:42;94678.38;;;5.72;64.54
42247;BME280;27913;42.722;23.268;2023-04-27T01:06:07;94726.81;;;6.08;64.28
42247;BME280;27913;42.722;23.268;2023-04-27T01:08:33;94680.97;;;5.72;64.32
42247;BME280;27913;42.722;23.268;2023-04-27T01:10:58;94743.44;;;6.07;64.42
42247;BME280;27913;42.722;23.268;2023-04-27T01:13:24;94741.81;;;6.06;64.64
42247;BME280;27913;42.722;23.268;2023-04-27T01:15:49;94747.19;;;6.04;64.56
42247;BME280;27913;42.722;23.268;2023-04-27T01:18:15;94730.38;;;5.90;64.67
42247;BME280;27913;42.722;23.268;2023-04-27T01:20:41;94542.63;;;4.73;64.45
42247;BME280;27913;42.722;23.268;2023-04-27T01:23:07;94609.44;;;5.16;64.82
42247;BME280;27913;42.722;23.268;2023-04-27T01:25:32;94745.03;;;5.99;64.93
42247;BME280;27913;42.722;23.268;2023-04-27T01:27:58;94745.88;;;5.91;64.86
42247;BME280;27913;42.722;23.268;2023-04-27T01:30:23;94740.84;;;5.90;64.75
42247;BME280;27913;42.722;23.268;2023-04-27T01:32:49;94687.66;;;5.49;64.90
42247;BME280;27913;42.722;23.268;2023-04-27T01:35:15;94721.59;;;5.83;64.89
42247;BME280;27913;42.722;23.268;2023-04-27T01:37:40;94629.97;;;5.11;64.78
42247;BME280;27913;42.722;23.268;2023-04-27T01:40:06;94554.66;;;4.57;64.69
42247;BME280;27913;42.722;23.268;2023-04-27T01:42:32;94758.44;;;5.88;64.81
42247;BME280;27913;42.722;23.268;2023-04-27T01:44:58;94678.53;;;5.28;64.99
42247;BME280;27913;42.722;23.268;2023-04-27T01:47:25;94760.91;;;5.73;65.06
42247;BME280;27913;42.722;23.268;2023-04-27T01:49:51;94741.97;;;5.71;65.30
42247;BME280;27913;42.722;23.268;2023-04-27T01:52:16;94708.72;;;5.39;65.22
42247;BME280;27913;42.722;23.268;2023-04-27T01:54:42;94757.13;;;5.75;65.04
42247;BME280;27913;42.722;23.268;2023-04-27T01:57:07;94616.91;;;4.86;65.13
42247;BME280;27913;42.722;23.268;2023-04-27T01:59:33;94758.75;;;5.68;65.12
42247;BME280;27913;42.722;23.268;2023-04-27T02:01:58;94635.31;;;4.92;64.91
42247;BME280;27913;42.722;23.268;2023-04-27T02:04:23;94759.09;;;5.65;65.39
42247;BME280;27913;42.722;23.268;2023-04-27T02:06:49;94703.97;;;5.35;65.03
42247;BME280;27913;42.722;23.268;2023-04-27T02:09:15;94758.59;;;5.61;65.41
42247;BME280;27913;42.722;23.268;2023-04-27T02:11:40;94578.25;;;4.39;65.16
42247;BME280;27913;42.722;23.268;2023-04-27T02:14:06;94704.91;;;5.17;65.46
42247;BME280;27913;42.722;23.268;2023-04-27T02:16:31;94769.69;;;5.55;65.44
42247;BME280;27913;42.722;23.268;2023-04-27T02:18:57;94777.81;;;5.52;65.18
42247;BME280;27913;42.722;23.268;2023-04-27T02:21:23;94638.50;;;4.69;64.93
42247;BME280;27913;42.722;23.268;2023-04-27T02:23:48;94778.97;;;5.49;65.39
42247;BME280;27913;42.722;23.268;2023-04-27T02:26:20;94712.06;;;5.06;65.26
42247;BME280;27913;42.722;23.268;2023-04-27T02:28:47;94770.31;;;5.40;65.57
42247;BME280;27913;42.722;23.268;2023-04-27T02:31:13;94771.44;;;5.38;65.56
42247;BME280;27913;42.722;23.268;2023-04-27T02:33:39;94773.06;;;5.30;65.14
42247;BME280;27913;42.722;23.268;2023-04-27T02:36:06;94779.25;;;5.38;65.23
42247;BME280;27913;42.722;23.268;2023-04-27T02:38:32;94719.19;;;4.96;65.31
42247;BME280;27913;42.722;23.268;2023-04-27T02:40:57;94684.13;;;4.74;65.33
42247;BME280;27913;42.722;23.268;2023-04-27T02:43:23;94776.19;;;5.34;65.29
42247;BME280;27913;42.722;23.268;2023-04-27T02:45:48;94779.59;;;5.35;65.54
42247;BME280;27913;42.722;23.268;2023-04-27T02:48:14;94776.97;;;5.26;65.30
42247;BME280;27913;42.722;23.268;2023-04-27T02:50:40;94653.44;;;4.42;65.39
42247;BME280;27913;42.722;23.268;2023-04-27T02:53:06;94795.22;;;5.26;65.69
42247;BME280;27913;42.722;23.268;2023-04-27T02:55:32;94538.47;;;3.69;65.60
42247;BME280;27913;42.722;23.268;2023-04-27T02:57:58;94783.47;;;5.22;65.99
42247;BME280;27913;42.722;23.268;2023-04-27T03:00:24;94790.50;;;5.22;66.22
42247;BME280;27913;42.722;23.268;2023-04-27T03:02:49;94542.66;;;3.61;66.04
42247;BME280;27913;42.722;23.268;2023-04-27T03:05:15;94789.31;;;5.16;66.47
42247;BME280;27913;42.722;23.268;2023-04-27T03:07:41;94692.31;;;4.44;66.60
42247;BME280;27913;42.722;23.268;2023-04-27T03:10:06;94736.56;;;4.70;66.79
42247;BME280;27913;42.722;23.268;2023-04-27T03:12:32;94726.94;;;4.71;66.50
42247;BME280;27913;42.722;23.268;2023-04-27T03:14:57;94805.09;;;5.06;66.75
42247;BME280;27913;42.722;23.268;2023-04-27T03:17:24;94739.25;;;4.61;67.08
42247;BME280;27913;42.722;23.268;2023-04-27T03:19:49;94783.50;;;4.87;67.32
42247;BME280;27913;42.722;23.268;2023-04-27T03:22:15;94678.00;;;4.13;67.52
42247;BME280;27913;42.722;23.268;2023-04-27T03:24:40;94805.50;;;4.85;67.68
42247;BME280;27913;42.722;23.268;2023-04-27T03:27:06;94815.25;;;4.82;67.66
42247;BME280;27913;42.722;23.268;2023-04-27T03:29:32;94815.41;;;4.81;67.95
42247;BME280;27913;42.722;23.268;2023-04-27T03:31:57;94617.19;;;3.53;67.66
42247;BME280;27913;42.722;23.268;2023-04-27T03:34:23;94683.16;;;3.96;67.84
42247;BME280;27913;42.722;23.268;2023-04-27T03:36:48;94821.75;;;4.78;67.82
42247;BME280;27913;42.722;23.268;2023-04-27T03:39:15;94757.56;;;4.34;67.73
42247;BME280;27913;42.722;23.268;2023-04-27T03:41:40;94736.63;;;4.17;67.80
42247;BME280;27913;42.722;23.268;2023-04-27T03:44:06;94824.31;;;4.70;67.74
42247;BME280;27913;42.722;23.268;2023-04-27T03:46:32;94830.00;;;4.65;68.06
42247;BME280;27913;42.722;23.268;2023-04-27T03:48:57;94836.47;;;4.61;68.34
42247;BME280;27913;42.722;23.268;2023-04-27T03:51:22;94777.75;;;4.14;68.15
42247;BME280;27913;42.722;23.268;2023-04-27T03:53:48;94578.44;;;2.96;68.31
42247;BME280;27913;42.722;23.268;2023-04-27T03:56:14;94843.94;;;4.56;68.38
42247;BME280;27913;42.722;23.268;2023-04-27T03:58:39;94812.13;;;4.44;68.51
42247;BME280;27913;42.722;23.268;2023-04-27T04:01:05;94740.03;;;3.91;68.60
42247;BME280;27913;42.722;23.268;2023-04-27T04:03:34;94797.66;;;4.23;68.56
42247;BME280;27913;42.722;23.268;2023-04-27T04:06:00;94831.81;;;4.46;68.55
42247;BME280;27913;42.722;23.268;2023-04-27T04:08:28;94749.97;;;3.96;68.34
42247;BME280;27913;42.722;23.268;2023-04-27T04:10:55;94867.22;;;4.57;68.76
42247;BME280;27913;42.722;23.268;2023-04-27T04:13:21;94869.47;;;4.52;68.75
42247;BME280;27913;42.722;23.268;2023-04-27T04:15:46;94831.72;;;4.30;68.77
42247;BME280;27913;42.722;23.268;2023-04-27T04:18:12;94863.59;;;4.50;68.67
42247;BME280;27913;42.722;23.268;2023-04-27T04:20:37;94626.16;;;2.95;68.52
42247;BME280;27913;42.722;23.268;2023-04-27T04:23:03;94812.94;;;4.18;68.73
42247;BME280;27913;42.722;23.268;2023-04-27T04:25:28;94862.84;;;4.58;68.42
42247;BME280;27913;42.722;23.268;2023-04-27T04:27:59;94882.44;;;4.70;68.33
42247;BME280;27913;42.722;23.268;2023-04-27T04:30:25;94869.09;;;4.74;68.23
42247;BME280;27913;42.722;23.268;2023-04-27T04:32:50;94897.25;;;4.70;68.41
42247;BME280;27913;42.722;23.268;2023-04-27T04:35:16;94840.59;;;4.45;68.63
42247;BME280;27913;42.722;23.268;2023-04-27T04:37:43;94890.56;;;4.67;68.82
42247;BME280;27913;42.722;23.268;2023-04-27T04:40:09;94827.03;;;4.33;68.53
42247;BME280;27913;42.722;23.268;2023-04-27T04:42:35;94900.38;;;4.74;68.89
42247;BME280;27913;42.722;23.268;2023-04-27T04:45:02;94896.63;;;4.76;69.07
42247;BME280;27913;42.722;23.268;2023-04-27T04:47:28;94783.25;;;4.10;69.11
42247;BME280;27913;42.722;23.268;2023-04-27T04:49:57;94780.66;;;4.10;68.92
42247;BME280;27913;42.722;23.268;2023-04-27T04:52:22;94903.44;;;4.95;68.79
42247;BME280;27913;42.722;23.268;2023-04-27T04:54:51;94904.91;;;4.98;68.60
42247;BME280;27913;42.722;23.268;2023-04-27T04:57:17;94911.91;;;4.98;68.29
42247;BME280;27913;42.722;23.268;2023-04-27T04:59:42;94766.00;;;4.09;68.70
42247;BME280;27913;42.722;23.268;2023-04-27T05:04:13;94906.47;;;5.17;68.27
42247;BME280;27913;42.722;23.268;2023-04-27T05:06:38;94868.75;;;4.95;68.14
42247;BME280;27913;42.722;23.268;2023-04-27T05:09:04;94850.50;;;4.95;68.14
42247;BME280;27913;42.722;23.268;2023-04-27T05:11:31;94920.44;;;5.43;67.77
42247;BME280;27913;42.722;23.268;2023-04-27T05:13:57;94916.97;;;5.69;67.40
42247;BME280;27913;42.722;23.268;2023-04-27T05:16:22;94906.88;;;5.74;66.02
42247;BME280;27913;42.722;23.268;2023-04-27T05:18:48;94850.34;;;5.40;65.58
42247;BME280;27913;42.722;23.268;2023-04-27T05:21:14;94913.09;;;5.90;65.73
42247;BME280;27913;42.722;23.268;2023-04-27T05:23:40;94829.84;;;5.53;65.46
42247;BME280;27913;42.722;23.268;2023-04-27T05:26:16;94916.78;;;6.31;64.19
42247;BME280;27913;42.722;23.268;2023-04-27T05:28:42;94925.28;;;6.41;64.03
42247;BME280;27913;42.722;23.268;2023-04-27T05:31:08;94928.84;;;6.48;63.48
42247;BME280;27913;42.722;23.268;2023-04-27T05:33:33;94927.22;;;6.56;62.73
42247;BME280;27913;42.722;23.268;2023-04-27T05:35:59;94917.75;;;6.55;62.79
42247;BME280;27913;42.722;23.268;2023-04-27T05:38:25;94831.88;;;6.10;62.93
42247;BME280;27913;42.722;23.268;2023-04-27T05:40:57;94712.94;;;5.49;61.99
42247;BME280;27913;42.722;23.268;2023-04-27T05:43:23;94856.38;;;6.34;61.37
42247;BME280;27913;42.722;23.268;2023-04-27T05:45:49;94841.03;;;6.39;61.28
42247;BME280;27913;42.722;23.268;2023-04-27T05:48:16;94941.44;;;6.86;61.27
42247;BME280;27913;42.722;23.268;2023-04-27T05:50:41;94942.72;;;6.82;61.65
42247;BME280;27913;42.722;23.268;2023-04-27T05:53:07;94826.84;;;6.25;61.46
42247;BME280;27913;42.722;23.268;2023-04-27T05:55:33;94874.16;;;6.47;61.50
42247;BME280;27913;42.722;23.268;2023-04-27T05:58:00;94844.78;;;6.36;61.64
42247;BME280;27913;42.722;23.268;2023-04-27T06:00:26;94936.69;;;6.98;61.83
42247;BME280;27913;42.722;23.268;2023-04-27T06:02:52;94931.75;;;7.04;60.71
42247;BME280;27913;42.722;23.268;2023-04-27T06:05:18;94937.47;;;7.07;60.65
42247;BME280;27913;42.722;23.268;2023-04-27T06:07:44;94769.72;;;6.05;59.85
42247;BME280;27913;42.722;23.268;2023-04-27T06:10:10;94933.69;;;7.18;60.37
42247;BME280;27913;42.722;23.268;2023-04-27T06:12:36;94717.19;;;5.83;60.21
42247;BME280;27913;42.722;23.268;2023-04-27T06:15:02;94770.84;;;6.19;59.63
42247;BME280;27913;42.722;23.268;2023-04-27T06:17:36;94936.94;;;7.29;59.65
42247;BME280;27913;42.722;23.268;2023-04-27T06:20:03;94868.22;;;6.86;58.82
42247;BME280;27913;42.722;23.268;2023-04-27T06:22:31;94897.59;;;7.05;58.28
42247;BME280;27913;42.722;23.268;2023-04-27T06:24:57;94929.88;;;7.29;58.87
42247;BME280;27913;42.722;23.268;2023-04-27T06:27:22;94865.25;;;6.98;58.63
42247;BME280;27913;42.722;23.268;2023-04-27T06:29:48;94672.81;;;5.83;58.83
42247;BME280;27913;42.722;23.268;2023-04-27T06:32:13;94835.53;;;6.91;58.56
42247;BME280;27913;42.722;23.268;2023-04-27T06:34:39;94819.72;;;6.75;59.18
42247;BME280;27913;42.722;23.268;2023-04-27T06:37:05;94671.53;;;5.71;58.48
42247;BME280;27913;42.722;23.268;2023-04-27T06:39:30;94916.50;;;7.24;58.49
42247;BME280;27913;42.722;23.268;2023-04-27T06:41:56;94920.63;;;7.18;58.01
42247;BME280;27913;42.722;23.268;2023-04-27T06:44:22;94916.66;;;7.22;57.47
42247;BME280;27913;42.722;23.268;2023-04-27T06:46:48;94917.63;;;7.30;57.68
42247;BME280;27913;42.722;23.268;2023-04-27T06:49:13;94896.59;;;7.15;56.76
42247;BME280;27913;42.722;23.268;2023-04-27T06:51:39;94909.34;;;7.18;57.19
42247;BME280;27913;42.722;23.268;2023-04-27T06:54:05;94865.78;;;6.85;57.39
42247;BME280;27913;42.722;23.268;2023-04-27T06:56:30;94703.97;;;5.85;57.22
42247;BME280;27913;42.722;23.268;2023-04-27T06:58:56;94883.56;;;7.06;57.96
42247;BME280;27913;42.722;23.268;2023-04-27T07:01:21;94857.22;;;7.08;58.13
42247;BME280;27913;42.722;23.268;2023-04-27T07:03:47;94652.09;;;5.90;57.77
42247;BME280;27913;42.722;23.268;2023-04-27T07:06:12;94844.28;;;7.15;56.20
42247;BME280;27913;42.722;23.268;2023-04-27T07:08:39;94828.00;;;7.04;57.11
42247;BME280;27913;42.722;23.268;2023-04-27T07:11:05;94902.75;;;7.70;56.43
42247;BME280;27913;42.722;23.268;2023-04-27T07:13:30;94925.47;;;7.78;55.47
42247;BME280;27913;42.722;23.268;2023-04-27T07:15:56;94910.38;;;7.80;54.45
42247;BME280;27913;42.722;23.268;2023-04-27T07:18:25;94797.41;;;7.36;55.84
42247;BME280;27913;42.722;23.268;2023-04-27T07:20:53;94646.63;;;6.25;54.15
42247;BME280;27913;42.722;23.268;2023-04-27T07:23:18;94878.78;;;7.82;53.48
42247;BME280;27913;42.722;23.268;2023-04-27T07:25:44;94915.44;;;8.14;53.89
42247;BME280;27913;42.722;23.268;2023-04-27T07:28:11;94910.84;;;8.16;53.66
42247;BME280;27913;42.722;23.268;2023-04-27T07:30:37;94907.41;;;8.15;52.42
42247;BME280;27913;42.722;23.268;2023-04-27T07:33:03;94912.19;;;8.12;52.78
42247;BME280;27913;42.722;23.268;2023-04-27T07:35:29;94873.66;;;7.97;51.52
42247;BME280;27913;42.722;23.268;2023-04-27T07:37:54;94849.44;;;7.95;51.31
42247;BME280;27913;42.722;23.268;2023-04-27T07:40:21;94776.16;;;7.40;51.21
42247;BME280;27913;42.722;23.268;2023-04-27T07:42:48;94911.03;;;8.14;52.69
42247;BME280;27913;42.722;23.268;2023-04-27T07:45:14;94901.88;;;8.10;52.41
42247;BME280;27913;42.722;23.268;2023-04-27T07:47:41;94914.69;;;8.28;52.12
42247;BME280;27913;42.722;23.268;2023-04-27T07:50:09;94907.59;;;8.37;52.13
42247;BME280;27913;42.722;23.268;2023-04-27T07:52:35;94913.59;;;8.46;52.10
42247;BME280;27913;42.722;23.268;2023-04-27T07:55:01;94925.34;;;8.50;51.88
42247;BME280;27913;42.722;23.268;2023-04-27T07:57:28;94818.00;;;8.18;50.95
42247;BME280;27913;42.722;23.268;2023-04-27T07:59:53;94906.75;;;8.84;49.74
42247;BME280;27913;42.722;23.268;2023-04-27T08:02:19;94698.31;;;7.65;50.30
42247;BME280;27913;42.722;23.268;2023-04-27T08:04:45;94821.28;;;8.59;49.69
42247;BME280;27913;42.722;23.268;2023-04-27T08:07:10;94855.56;;;8.73;49.02
42247;BME280;27913;42.722;23.268;2023-04-27T08:09:36;94909.50;;;9.05;49.02
42247;BME280;27913;42.722;23.268;2023-04-27T08:12:02;94689.22;;;7.76;47.42
42247;BME280;27913;42.722;23.268;2023-04-27T08:14:28;94644.94;;;7.66;47.81
42247;BME280;27913;42.722;23.268;2023-04-27T08:16:53;94909.22;;;9.30;45.90
42247;BME280;27913;42.722;23.268;2023-04-27T08:19:19;94901.63;;;9.36;47.61
42247;BME280;27913;42.722;23.268;2023-04-27T08:21:45;94820.03;;;9.00;47.96
42247;BME280;27913;42.722;23.268;2023-04-27T08:24:10;94719.84;;;8.44;47.44
42247;BME280;27913;42.722;23.268;2023-04-27T08:26:36;94794.47;;;8.87;49.04
42247;BME280;27913;42.722;23.268;2023-04-27T08:29:02;94648.63;;;7.95;48.34
42247;BME280;27913;42.722;23.268;2023-04-27T08:31:27;94915.09;;;9.63;47.73
42247;BME280;27913;42.722;23.268;2023-04-27T08:33:53;94780.53;;;8.87;48.28
42247;BME280;27913;42.722;23.268;2023-04-27T08:36:22;94895.53;;;9.65;48.23
42247;BME280;27913;42.722;23.268;2023-04-27T08:38:52;94897.44;;;9.57;48.63
42247;BME280;27913;42.722;23.268;2023-04-27T08:41:22;94904.41;;;9.64;48.88
42247;BME280;27913;42.722;23.268;2023-04-27T08:43:49;94740.75;;;8.68;47.96
42247;BME280;27913;42.722;23.268;2023-04-27T08:46:23;94778.97;;;9.08;48.12
42247;BME280;27913;42.722;23.268;2023-04-27T08:48:52;94637.13;;;8.42;46.94
42247;BME280;27913;42.722;23.268;2023-04-27T08:51:19;94892.59;;;10.12;46.90
42247;BME280;27913;42.722;23.268;2023-04-27T08:53:50;94894.56;;;10.25;47.70
42247;BME280;27913;42.722;23.268;2023-04-27T08:56:17;94892.63;;;10.34;45.97
42247;BME280;27913;42.722;23.268;2023-04-27T08:58:43;94868.84;;;10.21;46.49
42247;BME280;27913;42.722;23.268;2023-04-27T09:01:08;94681.00;;;9.00;46.21
42247;BME280;27913;42.722;23.268;2023-04-27T09:03:35;94883.03;;;10.26;46.32
42247;BME280;27913;42.722;23.268;2023-04-27T09:06:02;94899.50;;;10.35;46.95
42247;BME280;27913;42.722;23.268;2023-04-27T09:08:28;94888.44;;;10.40;44.72
42247;BME280;27913;42.722;23.268;2023-04-27T09:10:54;94885.69;;;10.48;45.31
42247;BME280;27913;42.722;23.268;2023-04-27T09:13:20;94882.69;;;10.51;45.47
42247;BME280;27913;42.722;23.268;2023-04-27T09:15:50;94906.72;;;10.48;44.97
42247;BME280;27913;42.722;23.268;2023-04-27T09:18:19;94824.16;;;9.99;44.99
42247;BME280;27913;42.722;23.268;2023-04-27T09:20:47;94885.84;;;10.47;44.94
42247;BME280;27913;42.722;23.268;2023-04-27T09:23:33;94891.09;;;10.69;44.12
42247;BME280;27913;42.722;23.268;2023-04-27T09:26:05;94871.41;;;10.58;44.64
42247;BME280;27913;42.722;23.268;2023-04-27T09:28:39;94773.91;;;10.09;44.39
42247;BME280;27913;42.722;23.268;2023-04-27T09:31:05;94885.19;;;10.89;43.37
42247;BME280;27913;42.722;23.268;2023-04-27T09:33:34;94893.66;;;10.84;42.73
42247;BME280;27913;42.722;23.268;2023-04-27T09:36:04;94883.75;;;10.86;42.87
42247;BME280;27913;42.722;23.268;2023-04-27T09:38:31;94815.97;;;10.31;42.73
42247;BME280;27913;42.722;23.268;2023-04-27T09:40:58;94879.13;;;10.59;43.14
42247;BME280;27913;42.722;23.268;2023-04-27T09:43:24;94861.50;;;10.89;43.28
42247;BME280;27913;42.722;23.268;2023-04-27T09:45:53;94814.81;;;10.62;42.10
42247;BME280;27913;42.722;23.268;2023-04-27T09:48:20;94868.78;;;11.15;42.66
42247;BME280;27913;42.722;23.268;2023-04-27T09:50:48;94868.25;;;11.33;41.43
42247;BME280;27913;42.722;23.268;2023-04-27T09:53:16;94846.91;;;11.21;42.55
42247;BME280;27913;42.722;23.268;2023-04-27T09:55:58;94798.13;;;10.77;41.61
42247;BME280;27913;42.722;23.268;2023-04-27T10:04:08;94793.34;;;10.94;40.84
42247;BME280;27913;42.722;23.268;2023-04-27T10:09:21;94763.13;;;10.47;41.77
42247;BME280;27913;42.722;23.268;2023-04-27T10:11:51;94724.44;;;10.41;42.00
42247;BME280;27913;42.722;23.268;2023-04-27T10:14:19;94863.84;;;11.47;40.83
42247;BME280;27913;42.722;23.268;2023-04-27T10:16:49;94852.00;;;11.23;41.12
42247;BME280;27913;42.722;23.268;2023-04-27T10:19:15;94785.13;;;11.10;40.31
42247;BME280;27913;42.722;23.268;2023-04-27T10:21:54;94677.19;;;10.48;40.02
42247;BME280;27913;42.722;23.268;2023-04-27T10:24:36;94807.97;;;11.52;39.64
42247;BME280;27913;42.722;23.268;2023-04-27T10:27:15;94739.56;;;11.03;39.29
42247;BME280;27913;42.722;23.268;2023-04-27T10:29:45;94759.63;;;11.11;39.51
42247;BME280;27913;42.722;23.268;2023-04-27T10:32:23;94757.81;;;11.11;38.89
42247;BME280;27913;42.722;23.268;2023-04-27T10:35:02;94752.69;;;11.59;38.19
42247;BME280;27913;42.722;23.268;2023-04-27T10:37:40;94849.50;;;12.19;38.20
42247;BME280;27913;42.722;23.268;2023-04-27T10:40:09;94753.50;;;11.59;38.54
42247;BME280;27913;42.722;23.268;2023-04-27T10:42:35;94772.59;;;11.82;37.84
42247;BME280;27913;42.722;23.268;2023-04-27T10:45:01;94851.56;;;12.44;36.94
42247;BME280;27913;42.722;23.268;2023-04-27T10:47:43;94847.72;;;12.54;36.34
42247;BME280;27913;42.722;23.268;2023-04-27T10:50:11;94682.59;;;11.65;35.95
42247;BME280;27913;42.722;23.268;2023-04-27T10:52:44;94713.59;;;11.90;36.25
42247;BME280;27913;42.722;23.268;2023-04-27T10:55:18;94590.16;;;11.05;36.63
42247;BME280;27913;42.722;23.268;2023-04-27T10:57:55;94852.75;;;12.89;36.31
42247;BME280;27913;42.722;23.268;2023-04-27T11:02:54;94780.34;;;12.31;36.68
42247;BME280;27913;42.722;23.268;2023-04-27T11:05:22;94590.00;;;11.14;36.33
42247;BME280;27913;42.722;23.268;2023-04-27T11:08:23;94839.38;;;12.84;36.59
42247;BME280;27913;42.722;23.268;2023-04-27T11:10:50;94856.00;;;12.24;37.65
42247;BME280;27913;42.722;23.268;2023-04-27T11:13:21;94852.53;;;12.10;37.83
42247;BME280;27913;42.722;23.268;2023-04-27T11:15:58;94857.03;;;12.29;36.82
42247;BME280;27913;42.722;23.268;2023-04-27T11:18:25;94825.34;;;12.09;38.33
42247;BME280;27913;42.722;23.268;2023-04-27T11:20:53;94856.41;;;12.20;37.87
42247;BME280;27913;42.722;23.268;2023-04-27T11:23:23;94818.03;;;12.04;37.38
42247;BME280;27913;42.722;23.268;2023-04-27T11:25:49;94856.31;;;11.93;38.07
42247;BME280;27913;42.722;23.268;2023-04-27T11:28:19;94769.19;;;11.26;38.35
42247;BME280;27913;42.722;23.268;2023-04-27T11:30:44;94734.16;;;11.25;37.56
42247;BME280;27913;42.722;23.268;2023-04-27T11:33:10;94608.34;;;10.86;37.90
42247;BME280;27913;42.722;23.268;2023-04-27T11:35:36;94859.16;;;12.05;37.73
42247;BME280;27913;42.722;23.268;2023-04-27T11:38:01;94855.91;;;11.96;37.82
42247;BME280;27913;42.722;23.268;2023-04-27T11:40:27;94863.84;;;12.03;37.63
42247;BME280;27913;42.722;23.268;2023-04-27T11:42:57;94862.72;;;12.47;37.01
42247;BME280;27913;42.722;23.268;2023-04-27T11:45:25;94871.84;;;12.58;36.82
42247;BME280;27913;42.722;23.268;2023-04-27T11:47:52;94861.69;;;12.75;36.97
42247;BME280;27913;42.722;23.268;2023-04-27T11:50:18;94860.09;;;12.74;36.64
42247;BME280;27913;42.722;23.268;2023-04-27T11:52:47;94868.19;;;12.72;36.69
42247;BME280;27913;42.722;23.268;2023-04-27T11:55:13;94877.50;;;12.20;37.73
42247;BME280;27913;42.722;23.268;2023-04-27T11:57:41;94594.31;;;10.66;37.03
42247;BME280;27913;42.722;23.268;2023-04-27T12:00:07;94610.38;;;10.91;36.52
42247;BME280;27913;42.722;23.268;2023-04-27T12:02:38;94853.16;;;12.32;36.93
42247;BME280;27913;42.722;23.268;2023-04-27T12:05:05;94650.75;;;11.19;37.48
42247;BME280;27913;42.722;23.268;2023-04-27T12:07:30;94670.34;;;10.54;37.21
42247;BME280;27913;42.722;23.268;2023-04-27T12:09:56;94621.72;;;10.43;37.19
42247;BME280;27913;42.722;23.268;2023-04-27T12:12:22;94843.56;;;12.04;37.05
42247;BME280;27913;42.722;23.268;2023-04-27T12:14:48;94705.38;;;11.10;36.85
42247;BME280;27913;42.722;23.268;2023-04-27T12:17:14;94867.00;;;12.54;37.24
42247;BME280;27913;42.722;23.268;2023-04-27T12:19:40;94869.22;;;12.58;37.03
42247;BME280;27913;42.722;23.268;2023-04-27T12:22:05;94772.25;;;12.26;36.84
42247;BME280;27913;42.722;23.268;2023-04-27T12:24:31;94773.03;;;12.47;35.65
42247;BME280;27913;42.722;23.268;2023-04-27T12:26:57;94726.38;;;12.06;35.72
42247;BME280;27913;42.722;23.268;2023-04-27T12:29:23;94890.66;;;12.14;36.83
42247;BME280;27913;42.722;23.268;2023-04-27T12:31:49;94879.59;;;11.83;37.68
42247;BME280;27913;42.722;23.268;2023-04-27T12:34:15;94874.31;;;11.76;36.88
42247;BME280;27913;42.722;23.268;2023-04-27T12:36:41;94869.16;;;12.10;37.80
42247;BME280;27913;42.722;23.268;2023-04-27T12:41:39;94827.41;;;11.51;38.23
42247;BME280;27913;42.722;23.268;2023-04-27T12:44:04;94875.06;;;12.26;37.40
42247;BME280;27913;42.722;23.268;2023-04-27T12:46:30;94780.69;;;11.80;36.86
42247;BME280;27913;42.722;23.268;2023-04-27T12:48:56;94879.56;;;12.46;36.90
42247;BME280;27913;42.722;23.268;2023-04-27T12:51:22;94873.66;;;12.57;37.02
42247;BME280;27913;42.722;23.268;2023-04-27T12:53:48;94755.22;;;12.35;36.57
42247;BME280;27913;42.722;23.268;2023-04-27T12:56:13;94862.41;;;13.36;35.96
42247;BME280;27913;42.722;23.268;2023-04-27T12:58:39;94821.38;;;13.27;35.72
42247;BME280;27913;42.722;23.268;2023-04-27T13:01:06;94689.50;;;11.93;35.55
42247;BME280;27913;42.722;23.268;2023-04-27T13:03:39;94576.63;;;11.42;35.47
42247;BME280;27913;42.722;23.268;2023-04-27T13:06:06;94667.59;;;12.26;35.29
42247;BME280;27913;42.722;23.268;2023-04-27T13:08:32;94691.50;;;12.25;34.87
42247;BME280;27913;42.722;23.268;2023-04-27T13:10:58;94692.13;;;12.20;34.75
42247;BME280;27913;42.722;23.268;2023-04-27T13:13:23;94581.09;;;11.42;35.13